createdAt,value
2023-03-05T11:14:10.661Z,46.5
2023-03-05T11:19:16.198Z,46
2023-03-05T11:24:22.593Z,46.5
2023-03-05T11:29:29.214Z,45
2023-03-05T11:34:35.591Z,45.5
2023-03-05T11:39:42.172Z,46.5
2023-03-05T11:44:48.565Z,47.5
2023-03-05T11:49:55.145Z,48.5
2023-03-05T11:55:01.596Z,48.5
2023-03-05T12:00:08.135Z,49
2023-03-05T12:05:14.596Z,49
2023-03-05T12:10:20.956Z,48.5
2023-03-05T12:15:27.257Z,48
2023-03-05T12:20:33.782Z,48
2023-03-05T12:25:40.144Z,48
2023-03-05T12:30:46.839Z,48
2023-03-05T12:35:53.160Z,48.5
2023-03-05T12:40:59.500Z,49
2023-03-05T12:46:05.966Z,48.5
2023-03-05T12:51:12.417Z,48.5
2023-03-05T12:56:19.004Z,48.5
2023-03-05T13:01:25.397Z,48
2023-03-05T13:06:32.071Z,48.5
2023-03-05T13:11:38.361Z,48.5
2023-03-05T13:16:45.056Z,48.5
2023-03-05T13:21:51.472Z,48.5
2023-03-05T13:26:57.162Z,48.5
2023-03-05T13:32:02.593Z,48.5
2023-03-05T13:37:07.911Z,48.5
2023-03-05T13:42:14.332Z,47
2023-03-05T13:47:20.924Z,47
2023-03-05T13:52:27.249Z,46.5
2023-03-05T13:57:33.967Z,46.5
2023-03-05T14:02:40.335Z,46.5
2023-03-05T14:07:46.944Z,46.5
2023-03-05T14:12:53.466Z,46.5
2023-03-05T14:18:00.068Z,47
2023-03-05T14:23:06.446Z,47
2023-03-05T14:28:13.109Z,47
2023-03-05T14:33:18.400Z,47.5
2023-03-05T14:38:24.849Z,47.5
2023-03-05T14:43:31.278Z,47.5
2023-03-05T14:48:37.700Z,47.5
2023-03-05T14:53:44.342Z,42
2023-03-05T14:58:50.763Z,42
2023-03-05T15:03:57.558Z,42.5
2023-03-05T15:09:03.849Z,42.5
2023-03-05T15:14:10.416Z,42.5
2023-03-05T15:19:16.929Z,42.5
2023-03-05T15:24:22.180Z,43
2023-03-05T15:29:27.594Z,43
2023-03-05T15:34:34.133Z,43
2023-03-05T15:39:40.696Z,43
2023-03-05T15:44:47.126Z,43.5
2023-03-05T15:49:53.737Z,43.5
2023-03-05T15:55:00.085Z,43.5
2023-03-05T16:00:06.401Z,44
2023-03-05T16:05:12.837Z,44
